createdAt,value
2019-03-05T00:00:04.648Z,963.17
2019-03-05T00:01:04.709Z,963.22
2019-03-05T00:02:05.440Z,963.17
2019-03-05T00:03:05.491Z,963.14
2019-03-05T00:04:04.601Z,963.08
2019-03-05T00:05:05.245Z,963.20
2019-03-05T00:06:04.496Z,963.31
2019-03-05T00:07:04.965Z,963.42
2019-03-05T00:08:05.398Z,963.19
2019-03-05T00:09:05.446Z,963.31
2019-03-05T00:10:04.928Z,963.42
2019-03-05T00:11:04.941Z,963.33
2019-03-05T00:12:05.350Z,963.39
2019-03-05T00:13:04.937Z,963.30
2019-03-05T00:14:05.032Z,963.25
2019-03-05T00:15:05.051Z,963.28
2019-03-05T00:16:05.221Z,963.39
2019-03-05T00:17:05.388Z,963.36
2019-03-05T00:18:05.483Z,963.33
2019-03-05T00:19:05.580Z,963.38
2019-03-05T00:20:04.979Z,963.30
2019-03-05T00:21:04.892Z,963.30
2019-03-05T00:22:04.970Z,963.38
2019-03-05T00:23:05.130Z,963.27
2019-03-05T00:24:05.408Z,963.15
2019-03-05T00:25:05.356Z,963.15
2019-03-05T00:26:05.062Z,963.23
2019-03-05T00:27:05.445Z,963.09
2019-03-05T00:28:05.443Z,963.23
2019-03-05T00:29:09.649Z,963.15
2019-03-05T00:30:05.028Z,963.12
2019-03-05T00:31:05.158Z,963.14
2019-03-05T00:32:05.420Z,963.14
2019-03-05T00:33:05.375Z,963.03
2019-03-05T00:34:05.500Z,963.14
2019-03-05T00:35:05.392Z,962.92
2019-03-05T00:36:04.593Z,963.00
2019-03-05T00:37:04.712Z,962.95
2019-03-05T00:38:04.559Z,962.92
2019-03-05T00:39:04.743Z,962.97
2019-03-05T00:40:04.795Z,962.89
2019-03-05T00:41:04.882Z,962.86
2019-03-05T00:42:04.856Z,962.89
2019-03-05T00:43:04.452Z,962.89
2019-03-05T00:44:04.520Z,962.77
2019-03-05T00:45:05.148Z,962.91
2019-03-05T00:46:04.499Z,962.80
2019-03-05T00:47:04.688Z,962.97
2019-03-05T00:48:04.839Z,962.80
2019-03-05T00:49:04.908Z,962.94
2019-03-05T00:50:04.512Z,962.94
2019-03-05T00:51:05.009Z,962.79
2019-03-05T00:52:05.066Z,963.02
2019-03-05T00:53:05.151Z,963.02
2019-03-05T00:54:05.248Z,963.02
2019-03-05T00:55:05.265Z,963.01
2019-03-05T00:56:04.609Z,963.10
2019-03-05T00:57:05.015Z,963.13
2019-03-05T00:58:05.224Z,963.21
2019-03-05T00:59:04.695Z,963.27
2019-03-05T01:00:09.955Z,963.10
2019-03-05T01:01:05.311Z,963.15
2019-03-05T01:02:05.436Z,963.15
2019-03-05T01:03:04.593Z,963.26
2019-03-05T01:04:04.970Z,963.21
2019-03-05T01:05:05.330Z,963.29
2019-03-05T01:06:04.671Z,963.12
2019-03-05T01:07:04.755Z,963.23
2019-03-05T01:08:04.885Z,963.29
2019-03-05T01:09:05.166Z,963.23
2019-03-05T01:10:05.391Z,963.32
2019-03-05T01:11:04.586Z,963.37
2019-03-05T01:12:05.080Z,963.15
2019-03-05T01:13:04.607Z,963.26
2019-03-05T01:14:04.733Z,963.35
2019-03-05T01:15:05.214Z,963.37
2019-03-05T01:16:04.763Z,963.46
2019-03-05T01:17:04.777Z,963.32
2019-03-05T01:18:04.805Z,963.32
2019-03-05T01:19:04.892Z,963.26
2019-03-05T01:20:05.073Z,963.29
2019-03-05T01:21:05.073Z,963.26
2019-03-05T01:22:04.566Z,963.21
2019-03-05T01:23:04.678Z,963.21
2019-03-05T01:24:04.939Z,963.49
2019-03-05T01:25:05.011Z,963.41
2019-03-05T01:26:05.125Z,963.27
2019-03-05T01:27:05.160Z,963.27
2019-03-05T01:28:05.345Z,963.49
2019-03-05T01:29:09.763Z,963.41
2019-03-05T01:30:05.285Z,963.46
2019-03-05T01:31:05.335Z,963.41
2019-03-05T01:32:05.339Z,963.47
2019-03-05T01:33:05.509Z,963.47
2019-03-05T01:34:05.519Z,963.38
2019-03-05T01:35:04.557Z,963.36
2019-03-05T01:36:04.773Z,963.55
2019-03-05T01:37:04.840Z,963.38
2019-03-05T01:38:04.683Z,963.41
2019-03-05T01:39:04.979Z,963.53
2019-03-05T01:40:05.176Z,963.25
2019-03-05T01:41:05.380Z,963.19
2019-03-05T01:42:04.909Z,963.27
2019-03-05T01:43:05.206Z,963.33
2019-03-05T01:44:04.806Z,963.36
2019-03-05T01:45:04.816Z,963.47
2019-03-05T01:46:04.756Z,963.42
2019-03-05T01:47:04.823Z,963.47
2019-03-05T01:48:05.050Z,963.50
2019-03-05T01:49:10.469Z,963.34
2019-03-05T01:50:04.948Z,963.36
2019-03-05T01:51:05.354Z,963.31
2019-03-05T01:52:05.351Z,963.34
2019-03-05T01:53:04.631Z,963.28
2019-03-05T01:54:04.596Z,963.59
2019-03-05T01:55:04.707Z,963.42
2019-03-05T01:56:05.160Z,963.34
2019-03-05T01:57:05.313Z,963.34
2019-03-05T01:58:05.382Z,963.37
2019-03-05T01:59:04.485Z,963.39
2019-03-05T02:00:04.740Z,963.26
2019-03-05T02:01:04.759Z,963.37
2019-03-05T02:02:04.643Z,963.26
2019-03-05T02:03:04.569Z,963.43
2019-03-05T02:04:04.904Z,963.40
2019-03-05T02:05:05.412Z,963.12
2019-03-05T02:06:05.472Z,963.09
2019-03-05T02:07:05.031Z,963.29
2019-03-05T02:08:04.601Z,963.26
2019-03-05T02:09:04.924Z,963.32
2019-03-05T02:10:05.020Z,963.26
2019-03-05T02:11:05.390Z,963.24
2019-03-05T02:12:05.517Z,963.24
2019-03-05T02:13:04.563Z,963.15
2019-03-05T02:14:05.263Z,963.35
2019-03-05T02:15:05.211Z,963.35
2019-03-05T02:16:04.803Z,963.35
2019-03-05T02:17:05.148Z,963.44
2019-03-05T02:18:05.010Z,963.44
2019-03-05T02:19:05.082Z,963.30
2019-03-05T02:20:04.764Z,963.52
2019-03-05T02:21:05.083Z,963.33
2019-03-05T02:22:05.054Z,963.44
2019-03-05T02:23:05.278Z,963.47
2019-03-05T02:24:05.306Z,963.39
2019-03-05T02:25:05.463Z,963.39
2019-03-05T02:26:04.450Z,963.47
2019-03-05T02:27:04.725Z,963.50
2019-03-05T02:28:05.391Z,963.44
2019-03-05T02:29:10.398Z,963.50
2019-03-05T02:30:04.716Z,963.50
2019-03-05T02:31:05.434Z,963.36
2019-03-05T02:32:04.541Z,963.42
2019-03-05T02:33:05.230Z,963.45
2019-03-05T02:34:05.356Z,963.56
2019-03-05T02:35:04.569Z,963.50
2019-03-05T02:36:04.855Z,963.53
2019-03-05T02:37:05.019Z,963.51
2019-03-05T02:38:06.446Z,963.56
2019-03-05T02:39:05.165Z,963.51
2019-03-05T02:40:04.490Z,963.51
2019-03-05T02:41:04.514Z,963.56
2019-03-05T02:42:04.679Z,963.64
2019-03-05T02:43:04.754Z,963.81
2019-03-05T02:44:05.260Z,963.73
2019-03-05T02:45:05.292Z,963.81
2019-03-05T02:46:05.213Z,963.84
2019-03-05T02:47:04.723Z,963.76
2019-03-05T02:48:04.827Z,963.73
2019-03-05T02:49:05.095Z,963.73
2019-03-05T02:50:04.469Z,963.73
2019-03-05T02:51:04.535Z,963.84
2019-03-05T02:52:04.648Z,963.76
2019-03-05T02:53:04.802Z,963.81
2019-03-05T02:54:05.364Z,963.81
2019-03-05T02:55:04.554Z,963.89
2019-03-05T02:56:05.039Z,963.73
2019-03-05T02:57:05.134Z,963.91
2019-03-05T02:58:04.826Z,963.78
2019-03-05T02:59:04.844Z,963.78
2019-03-05T03:00:04.829Z,963.78
2019-03-05T03:01:05.212Z,963.89
2019-03-05T03:02:05.300Z,963.86
2019-03-05T03:03:05.528Z,963.69
2019-03-05T03:04:04.472Z,963.83
2019-03-05T03:05:04.546Z,963.83
2019-03-05T03:06:05.114Z,963.81
2019-03-05T03:07:05.168Z,963.78
2019-03-05T03:08:04.731Z,963.83
2019-03-05T03:09:04.966Z,963.80
2019-03-05T03:10:05.352Z,963.78
2019-03-05T03:11:05.436Z,963.80
2019-03-05T03:12:04.809Z,963.80
2019-03-05T03:13:04.964Z,963.83
2019-03-05T03:14:04.978Z,963.72
2019-03-05T03:15:04.824Z,963.80
2019-03-05T03:16:04.786Z,963.83
2019-03-05T03:17:04.861Z,963.90
2019-03-05T03:18:05.133Z,963.83
2019-03-05T03:19:05.174Z,963.89
2019-03-05T03:20:04.668Z,963.72
2019-03-05T03:21:04.913Z,963.89
2019-03-05T03:22:05.281Z,963.83
2019-03-05T03:23:05.215Z,963.83
2019-03-05T03:24:05.294Z,963.77
2019-03-05T03:25:04.797Z,963.72
2019-03-05T03:26:05.324Z,963.80
2019-03-05T03:27:05.410Z,963.69
2019-03-05T03:28:04.730Z,963.96
2019-03-05T03:29:09.838Z,963.77
2019-03-05T03:30:05.132Z,963.89
2019-03-05T03:31:04.852Z,963.75
2019-03-05T03:32:04.722Z,963.86
2019-03-05T03:33:04.895Z,963.86
2019-03-05T03:34:05.040Z,963.78
2019-03-05T03:35:05.066Z,963.83
2019-03-05T03:36:05.230Z,963.94
2019-03-05T03:37:05.284Z,963.86
2019-03-05T03:38:05.319Z,963.78
2019-03-05T03:39:05.522Z,963.91
2019-03-05T03:40:06.571Z,963.94
2019-03-05T03:41:05.276Z,963.97
2019-03-05T03:42:04.789Z,963.89
2019-03-05T03:43:05.102Z,963.94
2019-03-05T03:44:05.272Z,963.94
2019-03-05T03:45:05.241Z,963.89
2019-03-05T03:46:05.195Z,964.17
2019-03-05T03:47:05.202Z,964.14
2019-03-05T03:48:04.494Z,964.08
2019-03-05T03:49:04.562Z,964.14
2019-03-05T03:50:05.003Z,964.11
2019-03-05T03:51:10.129Z,964.23
2019-03-05T03:52:04.703Z,963.97
2019-03-05T03:53:04.885Z,964.17
2019-03-05T03:54:05.011Z,964.17
2019-03-05T03:55:05.160Z,964.09
2019-03-05T03:56:05.574Z,964.14
2019-03-05T03:57:04.570Z,964.20
2019-03-05T03:58:05.104Z,964.09
2019-03-05T03:59:04.535Z,964.26
2019-03-05T04:00:04.619Z,964.17
2019-03-05T04:02:05.208Z,964.14
2019-03-05T04:03:04.559Z,964.33
2019-03-05T04:04:04.899Z,964.31
2019-03-05T04:05:05.001Z,964.14
2019-03-05T04:06:05.242Z,964.36
2019-03-05T04:07:05.194Z,964.22
2019-03-05T04:08:05.329Z,964.16
2019-03-05T04:09:05.273Z,964.19
2019-03-05T04:10:05.349Z,964.22
2019-03-05T04:11:05.439Z,964.30
2019-03-05T04:12:05.445Z,964.27
2019-03-05T04:13:04.465Z,964.19
2019-03-05T04:14:05.103Z,964.33
2019-03-05T04:15:05.332Z,964.22
2019-03-05T04:16:04.886Z,964.19
2019-03-05T04:17:05.406Z,964.25
2019-03-05T04:18:04.691Z,964.39
2019-03-05T04:19:04.805Z,964.22
2019-03-05T04:20:04.842Z,964.19
2019-03-05T04:21:05.497Z,964.22
2019-03-05T04:22:04.903Z,964.19
2019-03-05T04:23:04.821Z,963.94
2019-03-05T04:24:04.945Z,964.11
2019-03-05T04:25:05.076Z,964.14
2019-03-05T04:26:05.466Z,964.11
2019-03-05T04:27:05.529Z,964.11
2019-03-05T04:28:04.799Z,964.11
2019-03-05T04:29:10.365Z,964.08
2019-03-05T04:30:04.775Z,964.14
2019-03-05T04:31:04.837Z,964.03
2019-03-05T04:32:05.379Z,964.03
2019-03-05T04:33:05.559Z,963.94
2019-03-05T04:34:04.907Z,964.00
2019-03-05T04:35:04.976Z,964.14
2019-03-05T04:36:05.180Z,964.14
2019-03-05T04:37:05.233Z,964.14
2019-03-05T04:38:05.242Z,964.14
2019-03-05T04:39:05.429Z,963.98
2019-03-05T04:40:04.785Z,964.03
2019-03-05T04:41:05.235Z,964.20
2019-03-05T04:42:05.417Z,964.15
2019-03-05T04:43:04.475Z,964.06
2019-03-05T04:44:04.655Z,964.18
2019-03-05T04:45:04.593Z,964.23
2019-03-05T04:46:05.020Z,964.09
2019-03-05T04:47:05.329Z,964.18
2019-03-05T04:48:05.191Z,964.06
2019-03-05T04:49:05.374Z,964.15
2019-03-05T04:50:04.830Z,964.12
2019-03-05T04:51:05.244Z,964.09
2019-03-05T04:52:04.851Z,964.26
2019-03-05T04:53:05.373Z,964.06
2019-03-05T04:54:05.386Z,964.09
2019-03-05T04:55:05.038Z,964.15
2019-03-05T04:56:05.441Z,964.01
2019-03-05T04:57:04.589Z,964.03
2019-03-05T04:58:05.162Z,963.98
2019-03-05T04:59:09.702Z,964.06
2019-03-05T05:00:05.207Z,964.09
2019-03-05T05:01:05.213Z,964.12
2019-03-05T05:02:05.316Z,964.09
2019-03-05T05:03:05.354Z,964.06
2019-03-05T05:04:04.843Z,964.03
2019-03-05T05:05:04.863Z,964.09
2019-03-05T05:06:05.310Z,964.06
2019-03-05T05:07:05.367Z,964.01
2019-03-05T05:08:04.556Z,964.03
2019-03-05T05:09:04.694Z,963.98
2019-03-05T05:10:04.917Z,964.00
2019-03-05T05:11:04.561Z,964.00
2019-03-05T05:12:05.128Z,964.17
2019-03-05T05:13:05.154Z,964.06
2019-03-05T05:14:04.524Z,964.09
2019-03-05T05:15:04.649Z,964.09
2019-03-05T05:16:04.740Z,964.12
2019-03-05T05:17:05.011Z,964.09
2019-03-05T05:18:05.313Z,964.06
2019-03-05T05:19:04.541Z,964.03
2019-03-05T05:20:05.092Z,964.06
2019-03-05T05:21:04.693Z,964.06
2019-03-05T05:22:04.797Z,964.03
2019-03-05T05:23:05.050Z,964.14
2019-03-05T05:24:05.034Z,963.97
2019-03-05T05:25:05.436Z,964.11
2019-03-05T05:26:05.288Z,964.03
2019-03-05T05:27:04.681Z,964.08
2019-03-05T05:28:05.255Z,964.14
2019-03-05T05:29:10.392Z,964.20
2019-03-05T05:30:04.740Z,964.17
2019-03-05T05:31:04.918Z,964.22
2019-03-05T05:32:04.892Z,964.19
2019-03-05T05:33:04.975Z,964.02
2019-03-05T05:34:04.843Z,964.22
2019-03-05T05:35:04.743Z,964.22
2019-03-05T05:36:04.884Z,964.08
2019-03-05T05:37:05.477Z,964.02
2019-03-05T05:38:04.805Z,964.19
2019-03-05T05:39:04.725Z,964.10
2019-03-05T05:40:05.325Z,964.27
2019-03-05T05:41:05.252Z,964.24
2019-03-05T05:42:05.127Z,964.30
2019-03-05T05:43:05.317Z,964.21
2019-03-05T05:44:05.363Z,964.27
2019-03-05T05:45:04.821Z,964.30
2019-03-05T05:46:04.976Z,964.21
2019-03-05T05:47:05.102Z,964.24
2019-03-05T05:48:05.411Z,964.19
2019-03-05T05:49:05.414Z,964.32
2019-03-05T05:50:04.832Z,964.32
2019-03-05T05:51:04.713Z,964.32
2019-03-05T05:52:04.626Z,964.41
2019-03-05T05:53:04.653Z,964.46
2019-03-05T05:54:04.955Z,964.47
2019-03-05T05:55:04.619Z,964.69
2019-03-05T05:56:04.571Z,964.47
2019-03-05T05:57:05.086Z,964.70
2019-03-05T05:58:05.489Z,964.70
2019-03-05T05:59:04.631Z,964.78
2019-03-05T06:00:04.985Z,964.83
2019-03-05T06:01:04.920Z,964.73
2019-03-05T06:02:05.054Z,964.89
2019-03-05T06:03:05.130Z,964.78
2019-03-05T06:04:05.424Z,964.86
2019-03-05T06:05:04.650Z,964.67
2019-03-05T06:06:04.789Z,964.84
2019-03-05T06:07:05.373Z,964.87
2019-03-05T06:08:05.071Z,964.76
2019-03-05T06:09:05.145Z,964.84
2019-03-05T06:10:04.975Z,964.95
2019-03-05T06:11:05.251Z,964.90
2019-03-05T06:12:05.506Z,964.84
2019-03-05T06:13:04.998Z,964.90
2019-03-05T06:14:05.002Z,964.80
2019-03-05T06:15:05.096Z,964.77
2019-03-05T06:16:05.357Z,964.99
2019-03-05T06:17:04.936Z,964.88
2019-03-05T06:18:05.229Z,964.85
2019-03-05T06:19:04.900Z,964.94
2019-03-05T06:20:05.338Z,964.97
2019-03-05T06:21:04.960Z,965.03
2019-03-05T06:22:05.371Z,965.11
2019-03-05T06:23:05.498Z,965.03
2019-03-05T06:24:04.629Z,965.20
2019-03-05T06:25:04.633Z,965.00
2019-03-05T06:26:07.584Z,965.12
2019-03-05T06:27:04.485Z,965.12
2019-03-05T06:28:05.289Z,965.06
2019-03-05T06:29:09.686Z,965.15
2019-03-05T06:30:05.118Z,965.12
2019-03-05T06:31:04.622Z,965.18
2019-03-05T06:32:04.799Z,965.18
2019-03-05T06:33:05.355Z,965.12
2019-03-05T06:34:05.466Z,965.18
2019-03-05T06:35:04.631Z,965.15
2019-03-05T06:36:04.839Z,965.13
2019-03-05T06:37:04.975Z,965.21
2019-03-05T06:38:05.022Z,965.13
2019-03-05T06:39:05.531Z,965.18
2019-03-05T06:40:05.084Z,965.13
2019-03-05T06:41:05.501Z,965.10
2019-03-05T06:42:05.727Z,965.16
2019-03-05T06:43:05.134Z,965.13
2019-03-05T06:44:05.324Z,965.07
2019-03-05T06:45:04.703Z,965.04
2019-03-05T06:46:04.832Z,965.03
2019-03-05T06:47:05.169Z,965.11
2019-03-05T06:48:05.370Z,965.08
2019-03-05T06:49:09.873Z,965.04
2019-03-05T06:50:05.380Z,965.12
2019-03-05T06:51:05.405Z,965.06
2019-03-05T06:52:04.906Z,965.22
2019-03-05T06:53:04.990Z,965.07
2019-03-05T06:54:05.067Z,965.06
2019-03-05T06:55:05.260Z,965.02
2019-03-05T06:56:04.654Z,965.13
2019-03-05T06:57:04.914Z,965.15
2019-03-05T06:58:05.104Z,965.25
2019-03-05T06:59:05.153Z,965.10
2019-03-05T07:00:05.260Z,965.06
2019-03-05T07:01:05.313Z,965.17
2019-03-05T07:02:04.951Z,965.05
2019-03-05T07:03:05.396Z,965.10
2019-03-05T07:04:05.043Z,965.17
2019-03-05T07:05:04.516Z,965.05
2019-03-05T07:06:04.811Z,965.02
2019-03-05T07:07:05.155Z,965.16
2019-03-05T07:08:05.281Z,965.18
2019-03-05T07:09:04.825Z,965.12
2019-03-05T07:10:04.591Z,965.09
2019-03-05T07:11:04.757Z,965.14
2019-03-05T07:12:04.787Z,965.11
2019-03-05T07:13:05.011Z,965.16
2019-03-05T07:14:04.982Z,965.10
2019-03-05T07:15:05.439Z,965.10
2019-03-05T07:16:04.808Z,965.21
2019-03-05T07:17:05.309Z,965.09
2019-03-05T07:18:04.482Z,965.26
2019-03-05T07:19:04.485Z,965.15
2019-03-05T07:20:04.757Z,965.15
2019-03-05T07:21:04.813Z,965.15
2019-03-05T07:22:05.351Z,965.09
2019-03-05T07:23:04.946Z,965.17
2019-03-05T07:24:05.067Z,965.03
2019-03-05T07:25:05.508Z,965.22
2019-03-05T07:26:04.644Z,965.19
2019-03-05T07:27:05.106Z,965.05
2019-03-05T07:28:05.201Z,965.08
2019-03-05T07:29:10.145Z,965.11
2019-03-05T07:30:04.571Z,965.11
2019-03-05T07:31:04.832Z,965.20
2019-03-05T07:32:05.121Z,965.17
2019-03-05T07:33:05.214Z,965.23
2019-03-05T07:34:04.774Z,965.09
2019-03-05T07:35:05.053Z,965.21
2019-03-05T07:36:05.451Z,965.21
2019-03-05T07:37:04.776Z,965.21
2019-03-05T07:38:04.987Z,965.15
2019-03-05T07:39:05.016Z,965.16
2019-03-05T07:40:05.295Z,965.27
2019-03-05T07:41:05.471Z,965.16
2019-03-05T07:42:05.541Z,965.35
2019-03-05T07:43:05.391Z,965.26
2019-03-05T07:44:05.371Z,965.26
2019-03-05T07:45:04.666Z,965.23
2019-03-05T07:46:05.293Z,965.37
2019-03-05T07:47:04.578Z,965.31
2019-03-05T07:48:04.604Z,965.19
2019-03-05T07:49:09.667Z,965.30
2019-03-05T07:50:04.997Z,965.30
2019-03-05T07:51:05.110Z,965.13
2019-03-05T07:52:05.444Z,965.35
2019-03-05T07:53:04.570Z,965.26
2019-03-05T07:54:04.785Z,965.26
2019-03-05T07:55:14.164Z,965.29
2019-03-05T07:56:04.927Z,965.31
2019-03-05T07:57:05.001Z,965.40
2019-03-05T07:58:05.359Z,965.36
2019-03-05T07:59:04.644Z,965.28
2019-03-05T08:00:05.943Z,965.28
2019-03-05T08:01:04.819Z,965.47
2019-03-05T08:02:04.769Z,965.19
2019-03-05T08:03:04.725Z,965.36
2019-03-05T08:04:04.800Z,965.34
2019-03-05T08:05:04.863Z,965.26
2019-03-05T08:06:05.371Z,965.23
2019-03-05T08:07:04.478Z,965.40
2019-03-05T08:08:04.752Z,965.38
2019-03-05T08:09:04.912Z,965.24
2019-03-05T08:10:05.220Z,965.46
2019-03-05T08:11:05.286Z,965.41
2019-03-05T08:12:05.227Z,965.40
2019-03-05T08:13:05.692Z,965.46
2019-03-05T08:14:04.911Z,965.49
2019-03-05T08:15:04.985Z,965.43
2019-03-05T08:16:04.976Z,965.25
2019-03-05T08:17:05.065Z,965.34
2019-03-05T08:18:04.836Z,965.48
2019-03-05T08:19:05.016Z,965.61
2019-03-05T08:20:05.603Z,965.56
2019-03-05T08:21:05.134Z,965.44
2019-03-05T08:22:05.484Z,965.49
2019-03-05T08:23:04.772Z,965.52
2019-03-05T08:24:04.791Z,965.58
2019-03-05T08:25:04.953Z,965.57
2019-03-05T08:26:05.054Z,965.57
2019-03-05T08:27:05.068Z,965.57
2019-03-05T08:28:05.258Z,965.70
2019-03-05T08:29:09.949Z,965.59
2019-03-05T08:30:14.915Z,965.64
2019-03-05T08:31:06.264Z,965.78
2019-03-05T08:32:04.770Z,965.64
2019-03-05T08:33:04.731Z,965.84
2019-03-05T08:34:05.270Z,965.70
2019-03-05T08:35:04.532Z,965.73
2019-03-05T08:36:07.432Z,965.76
2019-03-05T08:37:04.913Z,965.73
2019-03-05T08:38:05.358Z,965.76
2019-03-05T08:39:04.685Z,965.68
2019-03-05T08:40:04.894Z,965.79
2019-03-05T08:41:05.233Z,965.71
2019-03-05T08:42:04.479Z,965.86
2019-03-05T08:43:04.927Z,965.77
2019-03-05T08:44:04.824Z,965.77
2019-03-05T08:45:04.945Z,965.83
2019-03-05T08:46:05.257Z,965.77
2019-03-05T08:47:04.537Z,965.80
2019-03-05T08:48:05.050Z,965.79
2019-03-05T08:49:05.415Z,965.96
2019-03-05T08:50:05.072Z,965.82
2019-03-05T08:51:05.142Z,965.96
2019-03-05T08:52:05.340Z,965.98
2019-03-05T08:53:05.320Z,965.92
2019-03-05T08:54:08.135Z,965.92
2019-03-05T08:55:04.810Z,966.03
2019-03-05T08:56:05.112Z,966.09
2019-03-05T08:57:05.125Z,966.14
2019-03-05T08:58:10.379Z,965.86
2019-03-05T08:59:04.719Z,966.08
2019-03-05T09:00:04.750Z,966.00
2019-03-05T09:01:05.570Z,965.83
2019-03-05T09:02:04.883Z,965.94
2019-03-05T09:03:05.023Z,966.02
2019-03-05T09:04:05.051Z,965.93
2019-03-05T09:05:05.484Z,965.96
2019-03-05T09:06:04.636Z,966.05
2019-03-05T09:07:04.648Z,965.96
2019-03-05T09:08:05.027Z,966.07
2019-03-05T09:09:05.281Z,965.90
2019-03-05T09:10:05.132Z,965.99
2019-03-05T09:11:05.642Z,965.85
2019-03-05T09:12:04.594Z,965.99
2019-03-05T09:13:04.746Z,965.99
2019-03-05T09:14:04.721Z,966.08
2019-03-05T09:15:05.078Z,966.02
2019-03-05T09:16:05.143Z,966.05
2019-03-05T09:17:04.651Z,966.02
2019-03-05T09:18:04.850Z,966.02
2019-03-05T09:19:05.030Z,965.99
2019-03-05T09:20:05.319Z,965.96
2019-03-05T09:21:04.697Z,966.04
2019-03-05T09:22:04.827Z,966.12
2019-03-05T09:23:04.888Z,966.09
2019-03-05T09:24:05.050Z,965.97
2019-03-05T09:25:04.456Z,966.14
2019-03-05T09:26:04.570Z,966.05
2019-03-05T09:27:05.221Z,966.16
2019-03-05T09:28:07.574Z,966.16
2019-03-05T09:29:10.438Z,966.04
2019-03-05T09:30:04.694Z,966.18
2019-03-05T09:31:04.970Z,966.15
2019-03-05T09:32:04.781Z,966.09
2019-03-05T09:33:05.328Z,966.12
2019-03-05T09:34:04.794Z,966.03
2019-03-05T09:35:05.103Z,966.06
2019-03-05T09:36:05.387Z,965.97
2019-03-05T09:37:04.644Z,966.05
2019-03-05T09:38:04.762Z,966.08
2019-03-05T09:39:05.336Z,965.94
2019-03-05T09:40:05.568Z,966.04
2019-03-05T09:41:04.555Z,966.13
2019-03-05T09:42:04.789Z,966.12
2019-03-05T09:43:04.662Z,966.12
2019-03-05T09:44:04.886Z,966.04
2019-03-05T09:45:05.240Z,965.98
2019-03-05T09:46:05.167Z,966.09
2019-03-05T09:47:05.594Z,966.12
2019-03-05T09:48:04.932Z,966.14
2019-03-05T09:49:05.014Z,966.00
2019-03-05T09:50:05.143Z,966.09
2019-03-05T09:51:05.074Z,966.11
2019-03-05T09:52:04.751Z,966.09
2019-03-05T09:53:05.000Z,966.26
2019-03-05T09:54:04.925Z,966.11
2019-03-05T09:55:05.305Z,966.09
2019-03-05T09:56:05.306Z,966.14
2019-03-05T09:57:05.398Z,966.12
2019-03-05T09:58:08.988Z,966.06
2019-03-05T09:59:04.782Z,966.06
2019-03-05T10:00:04.590Z,966.12
2019-03-05T10:01:05.246Z,966.12
2019-03-05T10:02:05.291Z,966.12
2019-03-05T10:03:05.393Z,966.01
2019-03-05T10:04:04.516Z,966.03
2019-03-05T10:05:04.693Z,966.06
2019-03-05T10:06:05.255Z,965.81
2019-03-05T10:07:04.922Z,965.92
2019-03-05T10:08:05.240Z,965.98
2019-03-05T10:09:04.886Z,965.95
2019-03-05T10:10:05.267Z,965.90
2019-03-05T10:11:05.268Z,965.98
2019-03-05T10:12:04.618Z,965.78
2019-03-05T10:13:05.048Z,966.04
2019-03-05T10:14:04.781Z,965.98
2019-03-05T10:15:05.484Z,965.89
2019-03-05T10:16:04.588Z,966.06
2019-03-05T10:17:04.966Z,966.03
2019-03-05T10:18:13.341Z,965.92
2019-03-05T10:19:04.963Z,966.00
2019-03-05T10:20:04.962Z,965.98
2019-03-05T10:21:04.939Z,966.09
2019-03-05T10:22:05.470Z,966.00
2019-03-05T10:23:04.974Z,966.01
2019-03-05T10:24:11.098Z,966.01
2019-03-05T10:25:06.778Z,966.01
2019-03-05T10:26:05.310Z,966.07
2019-03-05T10:27:05.464Z,966.07
2019-03-05T10:28:04.955Z,966.16
2019-03-05T10:29:10.298Z,966.13
2019-03-05T10:30:04.718Z,966.13
2019-03-05T10:31:04.758Z,966.08
2019-03-05T10:32:04.595Z,965.99
2019-03-05T10:33:04.715Z,966.05
2019-03-05T10:34:05.251Z,966.02
2019-03-05T10:35:04.579Z,966.31
2019-03-05T10:36:04.640Z,966.16
2019-03-05T10:37:18.490Z,966.02
2019-03-05T10:38:04.640Z,966.25
2019-03-05T10:39:04.687Z,966.14
2019-03-05T10:40:05.003Z,966.28
2019-03-05T10:41:04.486Z,965.97
2019-03-05T10:42:04.646Z,966.20
2019-03-05T10:43:09.258Z,966.03
2019-03-05T10:44:04.949Z,966.06
2019-03-05T10:45:05.325Z,966.15
2019-03-05T10:46:05.390Z,966.15
2019-03-05T10:47:04.501Z,966.01
2019-03-05T10:48:04.742Z,966.13
2019-03-05T10:49:05.060Z,965.99
2019-03-05T10:50:15.781Z,966.19
2019-03-05T10:51:04.765Z,966.08
2019-03-05T10:52:04.763Z,966.17
2019-03-05T10:53:05.379Z,966.23
2019-03-05T10:54:04.900Z,966.20
2019-03-05T10:55:04.522Z,966.20
2019-03-05T10:56:04.631Z,966.38
2019-03-05T10:57:04.703Z,966.24
2019-03-05T10:58:04.890Z,966.33
2019-03-05T10:59:05.881Z,966.30
2019-03-05T11:00:04.453Z,966.33
2019-03-05T11:01:04.789Z,966.40
2019-03-05T11:02:05.085Z,966.45
2019-03-05T11:03:05.335Z,966.46
2019-03-05T11:04:05.051Z,966.57
2019-03-05T11:05:05.029Z,966.35
2019-03-05T11:06:04.654Z,966.49
2019-03-05T11:07:04.747Z,966.47
2019-03-05T11:08:04.924Z,966.59
2019-03-05T11:09:05.107Z,966.39
2019-03-05T11:10:05.058Z,966.71
2019-03-05T11:11:14.180Z,966.48
2019-03-05T11:12:04.765Z,966.60
2019-03-05T11:13:05.069Z,966.66
2019-03-05T11:14:05.113Z,966.66
2019-03-05T11:15:05.301Z,966.55
2019-03-05T11:16:05.386Z,966.56
2019-03-05T11:17:04.761Z,966.59
2019-03-05T11:18:04.874Z,966.67
2019-03-05T11:19:04.643Z,966.53
2019-03-05T11:20:04.561Z,966.51
2019-03-05T11:21:05.059Z,966.54
2019-03-05T11:22:05.223Z,966.51
2019-03-05T11:23:04.584Z,966.46
2019-03-05T11:24:04.502Z,966.40
2019-03-05T11:25:05.051Z,966.54
2019-03-05T11:26:04.804Z,966.63
2019-03-05T11:27:05.221Z,966.52
2019-03-05T11:28:05.369Z,966.52
2019-03-05T11:29:05.380Z,966.55
2019-03-05T11:30:05.416Z,966.63
2019-03-05T11:31:05.439Z,966.52
2019-03-05T11:32:04.746Z,966.49
2019-03-05T11:33:04.806Z,966.46
2019-03-05T11:34:05.350Z,966.63
2019-03-05T11:35:05.474Z,966.52
2019-03-05T11:36:06.052Z,966.52
2019-03-05T11:37:05.081Z,966.54
2019-03-05T11:38:05.191Z,966.46
2019-03-05T11:39:05.225Z,966.54
2019-03-05T11:40:05.434Z,966.40
2019-03-05T11:41:04.667Z,966.46
2019-03-05T11:42:04.993Z,966.46
2019-03-05T11:43:05.335Z,966.52
2019-03-05T11:44:06.092Z,966.52
2019-03-05T11:45:11.573Z,966.37
2019-03-05T11:46:05.291Z,966.40
2019-03-05T11:47:04.676Z,966.32
2019-03-05T11:48:04.959Z,966.43
2019-03-05T11:49:10.271Z,966.46
2019-03-05T11:50:04.631Z,966.55
2019-03-05T11:51:04.624Z,966.43
2019-03-05T11:52:04.811Z,966.52
2019-03-05T11:53:04.942Z,966.41
2019-03-05T11:54:04.821Z,966.49
2019-03-05T11:55:04.958Z,966.44
2019-03-05T11:56:04.620Z,966.58
2019-03-05T11:57:04.481Z,966.38
2019-03-05T11:58:04.535Z,966.52
2019-03-05T11:59:04.639Z,966.44
2019-03-05T12:00:04.767Z,966.55
2019-03-05T12:01:05.222Z,966.58
2019-03-05T12:02:05.375Z,966.55
2019-03-05T12:03:04.629Z,966.41
2019-03-05T12:04:04.818Z,966.47
2019-03-05T12:05:05.278Z,966.44
2019-03-05T12:06:05.313Z,966.44
2019-03-05T12:07:05.486Z,966.53
2019-03-05T12:08:04.484Z,966.42
2019-03-05T12:09:05.156Z,966.53
2019-03-05T12:10:05.421Z,966.39
2019-03-05T12:11:04.933Z,966.53
2019-03-05T12:12:05.285Z,966.44
2019-03-05T12:13:04.811Z,966.64
2019-03-05T12:14:04.791Z,966.45
2019-03-05T12:15:04.931Z,966.56
2019-03-05T12:16:05.416Z,966.59
2019-03-05T12:17:04.786Z,966.47
2019-03-05T12:18:05.203Z,966.53
2019-03-05T12:19:05.451Z,966.53
2019-03-05T12:20:04.536Z,966.44
2019-03-05T12:21:05.173Z,966.61
2019-03-05T12:22:05.360Z,966.50
2019-03-05T12:23:10.273Z,966.61
2019-03-05T12:24:05.170Z,966.61
2019-03-05T12:25:05.312Z,966.49
2019-03-05T12:26:05.355Z,966.43
2019-03-05T12:27:05.040Z,966.46
2019-03-05T12:28:11.258Z,966.37
2019-03-05T12:29:04.913Z,966.48